sensor_id;sensor_type;location;lat;lon;timestamp;P1;durP1;ratioP1;P2;durP2;ratioP2
26407;SDS011;14583;43.604;1.364;2023-04-07T00:00:19;10.80;;;5.75;;
26407;SDS011;14583;43.604;1.364;2023-04-07T00:02:45;8.60;;;5.55;;
26407;SDS011;14583;43.604;1.364;2023-04-07T00:05:11;10.63;;;5.40;;
26407;SDS011;14583;43.604;1.364;2023-04-07T00:07:36;11.75;;;5.38;;
26407;SDS011;14583;43.604;1.364;2023-04-07T00:10:02;10.55;;;5.00;;
26407;SDS011;14583;43.604;1.364;2023-04-07T00:12:28;8.75;;;4.80;;
26407;SDS011;14583;43.604;1.364;2023-04-07T00:14:54;8.32;;;5.05;;
26407;SDS011;14583;43.604;1.364;2023-04-07T00:17:20;9.65;;;4.85;;
26407;SDS011;14583;43.604;1.364;2023-04-07T00:19:46;7.20;;;4.63;;
26407;SDS011;14583;43.604;1.364;2023-04-07T00:22:11;7.70;;;4.70;;
26407;SDS011;14583;43.604;1.364;2023-04-07T00:24:37;9.73;;;5.43;;
26407;SDS011;14583;43.604;1.364;2023-04-07T00:27:02;8.52;;;4.65;;
26407;SDS011;14583;43.604;1.364;2023-04-07T00:29:28;9.60;;;4.75;;
26407;SDS011;14583;43.604;1.364;2023-04-07T00:31:54;6.72;;;4.68;;
26407;SDS011;14583;43.604;1.364;2023-04-07T00:34:20;10.75;;;4.95;;
26407;SDS011;14583;43.604;1.364;2023-04-07T00:36:45;7.15;;;4.55;;
26407;SDS011;14583;43.604;1.364;2023-04-07T00:39:16;7.70;;;4.80;;
26407;SDS011;14583;43.604;1.364;2023-04-07T00:41:45;7.80;;;4.75;;
26407;SDS011;14583;43.604;1.364;2023-04-07T00:44:11;10.65;;;4.57;;
26407;SDS011;14583;43.604;1.364;2023-04-07T00:46:37;8.63;;;5.15;;
26407;SDS011;14583;43.604;1.364;2023-04-07T00:49:03;6.70;;;4.45;;
26407;SDS011;14583;43.604;1.364;2023-04-07T00:51:30;6.60;;;4.50;;
26407;SDS011;14583;43.604;1.364;2023-04-07T00:53:56;7.68;;;4.50;;
26407;SDS011;14583;43.604;1.364;2023-04-07T00:56:22;7.57;;;4.85;;
26407;SDS011;14583;43.604;1.364;2023-04-07T00:58:47;8.52;;;4.28;;
26407;SDS011;14583;43.604;1.364;2023-04-07T01:04:08;10.10;;;5.25;;
26407;SDS011;14583;43.604;1.364;2023-04-07T01:06:43;11.77;;;5.40;;
26407;SDS011;14583;43.604;1.364;2023-04-07T01:14:32;9.95;;;4.97;;
26407;SDS011;14583;43.604;1.364;2023-04-07T01:22:40;10.68;;;5.07;;
26407;SDS011;14583;43.604;1.364;2023-04-07T01:30:54;7.85;;;4.95;;
26407;SDS011;14583;43.604;1.364;2023-04-07T01:33:22;8.45;;;4.60;;
26407;SDS011;14583;43.604;1.364;2023-04-07T01:35:49;17.70;;;4.63;;
26407;SDS011;14583;43.604;1.364;2023-04-07T01:38:16;9.18;;;5.30;;
26407;SDS011;14583;43.604;1.364;2023-04-07T01:40:43;8.02;;;5.00;;
26407;SDS011;14583;43.604;1.364;2023-04-07T01:43:11;8.18;;;4.95;;
26407;SDS011;14583;43.604;1.364;2023-04-07T01:45:37;8.15;;;4.43;;
26407;SDS011;14583;43.604;1.364;2023-04-07T01:48:05;10.77;;;4.65;;
26407;SDS011;14583;43.604;1.364;2023-04-07T01:50:31;8.57;;;5.05;;
26407;SDS011;14583;43.604;1.364;2023-04-07T01:52:58;8.32;;;4.70;;
26407;SDS011;14583;43.604;1.364;2023-04-07T01:55:24;9.82;;;5.10;;
26407;SDS011;14583;43.604;1.364;2023-04-07T01:57:52;8.13;;;5.03;;
26407;SDS011;14583;43.604;1.364;2023-04-07T02:00:18;11.45;;;4.75;;
26407;SDS011;14583;43.604;1.364;2023-04-07T02:02:44;8.23;;;4.68;;
26407;SDS011;14583;43.604;1.364;2023-04-07T02:05:14;8.70;;;4.75;;
26407;SDS011;14583;43.604;1.364;2023-04-07T02:10:14;12.05;;;5.00;;
26407;SDS011;14583;43.604;1.364;2023-04-07T02:12:41;8.60;;;4.40;;
26407;SDS011;14583;43.604;1.364;2023-04-07T02:15:08;12.32;;;4.35;;
26407;SDS011;14583;43.604;1.364;2023-04-07T02:17:37;7.65;;;4.22;;
26407;SDS011;14583;43.604;1.364;2023-04-07T02:20:05;7.63;;;5.07;;
26407;SDS011;14583;43.604;1.364;2023-04-07T02:22:34;8.95;;;4.38;;
26407;SDS011;14583;43.604;1.364;2023-04-07T02:25:01;7.75;;;4.35;;
26407;SDS011;14583;43.604;1.364;2023-04-07T02:27:27;6.57;;;3.83;;
26407;SDS011;14583;43.604;1.364;2023-04-07T02:29:53;6.60;;;4.13;;
26407;SDS011;14583;43.604;1.364;2023-04-07T02:32:18;8.82;;;4.97;;
26407;SDS011;14583;43.604;1.364;2023-04-07T02:34:44;7.75;;;4.63;;
26407;SDS011;14583;43.604;1.364;2023-04-07T02:37:10;7.03;;;4.32;;
26407;SDS011;14583;43.604;1.364;2023-04-07T02:39:36;8.73;;;4.22;;
26407;SDS011;14583;43.604;1.364;2023-04-07T02:42:03;9.10;;;4.32;;
26407;SDS011;14583;43.604;1.364;2023-04-07T02:44:28;8.45;;;4.30;;
26407;SDS011;14583;43.604;1.364;2023-04-07T02:46:54;6.13;;;4.45;;
26407;SDS011;14583;43.604;1.364;2023-04-07T02:49:20;6.25;;;3.80;;
26407;SDS011;14583;43.604;1.364;2023-04-07T02:51:45;6.60;;;4.03;;
26407;SDS011;14583;43.604;1.364;2023-04-07T02:54:11;10.90;;;4.38;;
26407;SDS011;14583;43.604;1.364;2023-04-07T02:56:37;6.65;;;4.18;;
26407;SDS011;14583;43.604;1.364;2023-04-07T02:59:02;7.72;;;4.05;;
26407;SDS011;14583;43.604;1.364;2023-04-07T03:01:28;12.02;;;4.68;;
26407;SDS011;14583;43.604;1.364;2023-04-07T03:03:53;5.68;;;3.92;;
26407;SDS011;14583;43.604;1.364;2023-04-07T03:06:19;6.03;;;4.28;;
26407;SDS011;14583;43.604;1.364;2023-04-07T03:08:45;5.65;;;4.00;;
26407;SDS011;14583;43.604;1.364;2023-04-07T03:11:11;7.30;;;4.53;;
26407;SDS011;14583;43.604;1.364;2023-04-07T03:13:36;7.93;;;4.30;;
26407;SDS011;14583;43.604;1.364;2023-04-07T03:16:02;6.20;;;4.38;;
26407;SDS011;14583;43.604;1.364;2023-04-07T03:18:28;9.43;;;4.95;;
26407;SDS011;14583;43.604;1.364;2023-04-07T03:20:53;7.38;;;4.38;;
26407;SDS011;14583;43.604;1.364;2023-04-07T03:23:20;8.98;;;4.13;;
26407;SDS011;14583;43.604;1.364;2023-04-07T03:25:47;7.10;;;4.35;;
26407;SDS011;14583;43.604;1.364;2023-04-07T03:28:13;7.95;;;4.25;;
26407;SDS011;14583;43.604;1.364;2023-04-07T03:30:39;9.68;;;4.65;;
26407;SDS011;14583;43.604;1.364;2023-04-07T03:33:05;10.45;;;4.75;;
26407;SDS011;14583;43.604;1.364;2023-04-07T03:35:30;6.65;;;4.35;;
26407;SDS011;14583;43.604;1.364;2023-04-07T03:37:56;7.05;;;4.30;;
26407;SDS011;14583;43.604;1.364;2023-04-07T03:40:22;11.75;;;4.18;;
26407;SDS011;14583;43.604;1.364;2023-04-07T03:42:47;8.02;;;3.97;;
26407;SDS011;14583;43.604;1.364;2023-04-07T03:45:13;7.22;;;4.20;;
26407;SDS011;14583;43.604;1.364;2023-04-07T03:47:39;10.93;;;4.10;;
26407;SDS011;14583;43.604;1.364;2023-04-07T03:50:05;9.98;;;4.45;;
26407;SDS011;14583;43.604;1.364;2023-04-07T03:52:31;7.25;;;4.10;;
26407;SDS011;14583;43.604;1.364;2023-04-07T03:54:57;6.82;;;3.92;;
26407;SDS011;14583;43.604;1.364;2023-04-07T03:57:22;5.93;;;4.00;;
26407;SDS011;14583;43.604;1.364;2023-04-07T03:59:48;6.53;;;4.22;;
26407;SDS011;14583;43.604;1.364;2023-04-07T04:02:15;8.85;;;3.95;;
26407;SDS011;14583;43.604;1.364;2023-04-07T04:04:41;10.32;;;4.40;;
26407;SDS011;14583;43.604;1.364;2023-04-07T04:07:07;10.20;;;3.95;;
26407;SDS011;14583;43.604;1.364;2023-04-07T04:09:32;12.50;;;4.03;;
26407;SDS011;14583;43.604;1.364;2023-04-07T04:11:58;5.18;;;3.88;;
26407;SDS011;14583;43.604;1.364;2023-04-07T04:14:24;9.00;;;4.50;;
26407;SDS011;14583;43.604;1.364;2023-04-07T04:16:50;12.27;;;4.30;;
26407;SDS011;14583;43.604;1.364;2023-04-07T04:19:15;5.63;;;3.90;;
26407;SDS011;14583;43.604;1.364;2023-04-07T04:21:41;8.50;;;3.92;;
26407;SDS011;14583;43.604;1.364;2023-04-07T04:24:06;10.73;;;4.70;;
26407;SDS011;14583;43.604;1.364;2023-04-07T04:26:32;5.53;;;3.95;;
26407;SDS011;14583;43.604;1.364;2023-04-07T04:28:58;12.63;;;4.20;;
26407;SDS011;14583;43.604;1.364;2023-04-07T04:31:23;7.60;;;4.15;;
26407;SDS011;14583;43.604;1.364;2023-04-07T04:33:49;8.38;;;4.32;;
26407;SDS011;14583;43.604;1.364;2023-04-07T04:36:15;8.35;;;3.90;;
26407;SDS011;14583;43.604;1.364;2023-04-07T04:38:40;10.75;;;4.20;;
26407;SDS011;14583;43.604;1.364;2023-04-07T04:41:06;8.80;;;4.07;;
26407;SDS011;14583;43.604;1.364;2023-04-07T04:43:32;9.32;;;4.10;;
26407;SDS011;14583;43.604;1.364;2023-04-07T04:45:57;7.07;;;3.97;;
26407;SDS011;14583;43.604;1.364;2023-04-07T04:48:23;9.30;;;4.35;;
26407;SDS011;14583;43.604;1.364;2023-04-07T04:50:49;6.88;;;4.03;;
26407;SDS011;14583;43.604;1.364;2023-04-07T04:53:14;7.35;;;4.25;;
26407;SDS011;14583;43.604;1.364;2023-04-07T04:55:40;6.80;;;3.60;;
26407;SDS011;14583;43.604;1.364;2023-04-07T04:58:10;8.43;;;4.07;;
26407;SDS011;14583;43.604;1.364;2023-04-07T05:00:36;9.68;;;3.78;;
26407;SDS011;14583;43.604;1.364;2023-04-07T05:03:01;7.68;;;3.42;;
26407;SDS011;14583;43.604;1.364;2023-04-07T05:05:28;8.77;;;4.10;;
26407;SDS011;14583;43.604;1.364;2023-04-07T05:07:53;7.25;;;3.40;;
26407;SDS011;14583;43.604;1.364;2023-04-07T05:10:19;7.93;;;4.15;;
26407;SDS011;14583;43.604;1.364;2023-04-07T05:12:45;8.45;;;4.10;;
26407;SDS011;14583;43.604;1.364;2023-04-07T05:15:10;8.70;;;4.03;;
26407;SDS011;14583;43.604;1.364;2023-04-07T05:17:36;7.70;;;3.90;;
26407;SDS011;14583;43.604;1.364;2023-04-07T05:20:02;6.47;;;4.15;;
26407;SDS011;14583;43.604;1.364;2023-04-07T05:22:28;5.53;;;3.90;;
26407;SDS011;14583;43.604;1.364;2023-04-07T05:24:54;11.50;;;4.03;;
26407;SDS011;14583;43.604;1.364;2023-04-07T05:27:20;14.07;;;4.47;;
26407;SDS011;14583;43.604;1.364;2023-04-07T05:29:45;7.70;;;4.30;;
26407;SDS011;14583;43.604;1.364;2023-04-07T05:32:11;8.45;;;4.50;;
26407;SDS011;14583;43.604;1.364;2023-04-07T05:34:37;7.80;;;3.97;;
26407;SDS011;14583;43.604;1.364;2023-04-07T05:37:02;8.27;;;4.13;;
26407;SDS011;14583;43.604;1.364;2023-04-07T05:39:28;7.82;;;4.28;;
26407;SDS011;14583;43.604;1.364;2023-04-07T05:41:53;7.15;;;4.30;;
26407;SDS011;14583;43.604;1.364;2023-04-07T05:44:21;9.70;;;4.82;;
26407;SDS011;14583;43.604;1.364;2023-04-07T05:46:46;10.30;;;4.43;;
26407;SDS011;14583;43.604;1.364;2023-04-07T05:49:12;8.88;;;5.00;;
26407;SDS011;14583;43.604;1.364;2023-04-07T05:51:38;9.00;;;4.90;;
26407;SDS011;14583;43.604;1.364;2023-04-07T05:54:04;7.32;;;4.45;;
26407;SDS011;14583;43.604;1.364;2023-04-07T05:56:30;6.57;;;4.22;;
26407;SDS011;14583;43.604;1.364;2023-04-07T05:58:56;7.78;;;4.90;;
26407;SDS011;14583;43.604;1.364;2023-04-07T06:01:23;7.78;;;5.07;;
26407;SDS011;14583;43.604;1.364;2023-04-07T06:03:49;15.15;;;5.35;;
26407;SDS011;14583;43.604;1.364;2023-04-07T06:06:15;9.98;;;5.10;;
26407;SDS011;14583;43.604;1.364;2023-04-07T06:08:40;14.25;;;5.57;;
26407;SDS011;14583;43.604;1.364;2023-04-07T06:11:06;11.23;;;5.60;;
26407;SDS011;14583;43.604;1.364;2023-04-07T06:13:32;10.35;;;4.95;;
26407;SDS011;14583;43.604;1.364;2023-04-07T06:15:57;9.02;;;5.50;;
26407;SDS011;14583;43.604;1.364;2023-04-07T06:18:23;10.75;;;4.90;;
26407;SDS011;14583;43.604;1.364;2023-04-07T06:20:49;8.57;;;5.50;;
26407;SDS011;14583;43.604;1.364;2023-04-07T06:23:14;15.98;;;4.95;;
26407;SDS011;14583;43.604;1.364;2023-04-07T06:25:40;8.35;;;4.70;;
26407;SDS011;14583;43.604;1.364;2023-04-07T06:28:06;8.77;;;5.13;;
26407;SDS011;14583;43.604;1.364;2023-04-07T06:30:31;11.73;;;5.25;;
26407;SDS011;14583;43.604;1.364;2023-04-07T06:32:58;9.10;;;5.30;;
26407;SDS011;14583;43.604;1.364;2023-04-07T06:35:24;14.07;;;5.55;;
26407;SDS011;14583;43.604;1.364;2023-04-07T06:37:51;19.50;;;5.40;;
26407;SDS011;14583;43.604;1.364;2023-04-07T06:40:17;7.57;;;5.00;;
26407;SDS011;14583;43.604;1.364;2023-04-07T06:42:43;7.97;;;5.38;;
26407;SDS011;14583;43.604;1.364;2023-04-07T06:45:09;15.90;;;5.75;;
26407;SDS011;14583;43.604;1.364;2023-04-07T06:47:35;12.95;;;5.25;;
26407;SDS011;14583;43.604;1.364;2023-04-07T06:50:02;11.68;;;5.40;;
26407;SDS011;14583;43.604;1.364;2023-04-07T06:52:28;10.55;;;5.57;;
26407;SDS011;14583;43.604;1.364;2023-04-07T06:54:53;11.60;;;5.28;;
26407;SDS011;14583;43.604;1.364;2023-04-07T06:57:19;10.70;;;4.90;;
26407;SDS011;14583;43.604;1.364;2023-04-07T06:59:44;11.90;;;5.53;;
26407;SDS011;14583;43.604;1.364;2023-04-07T07:02:11;12.77;;;5.13;;
26407;SDS011;14583;43.604;1.364;2023-04-07T07:04:36;10.43;;;4.88;;
26407;SDS011;14583;43.604;1.364;2023-04-07T07:07:02;11.93;;;5.22;;
26407;SDS011;14583;43.604;1.364;2023-04-07T07:09:28;9.05;;;5.40;;
26407;SDS011;14583;43.604;1.364;2023-04-07T07:11:54;10.52;;;5.38;;
26407;SDS011;14583;43.604;1.364;2023-04-07T07:14:20;11.98;;;6.03;;
26407;SDS011;14583;43.604;1.364;2023-04-07T07:16:45;12.50;;;5.97;;
26407;SDS011;14583;43.604;1.364;2023-04-07T07:19:11;15.30;;;5.55;;
26407;SDS011;14583;43.604;1.364;2023-04-07T07:21:38;11.30;;;5.07;;
26407;SDS011;14583;43.604;1.364;2023-04-07T07:24:04;13.77;;;6.13;;
26407;SDS011;14583;43.604;1.364;2023-04-07T07:26:30;10.93;;;5.95;;
26407;SDS011;14583;43.604;1.364;2023-04-07T07:28:55;10.32;;;5.93;;
26407;SDS011;14583;43.604;1.364;2023-04-07T07:31:21;11.40;;;5.90;;
26407;SDS011;14583;43.604;1.364;2023-04-07T07:33:47;10.15;;;5.13;;
26407;SDS011;14583;43.604;1.364;2023-04-07T07:36:15;10.23;;;5.80;;
26407;SDS011;14583;43.604;1.364;2023-04-07T07:38:41;9.13;;;5.68;;
26407;SDS011;14583;43.604;1.364;2023-04-07T07:41:07;13.18;;;5.80;;
26407;SDS011;14583;43.604;1.364;2023-04-07T07:43:32;12.90;;;5.63;;
26407;SDS011;14583;43.604;1.364;2023-04-07T07:45:58;12.20;;;6.13;;
26407;SDS011;14583;43.604;1.364;2023-04-07T07:48:24;10.23;;;5.55;;
26407;SDS011;14583;43.604;1.364;2023-04-07T07:50:50;11.35;;;6.30;;
26407;SDS011;14583;43.604;1.364;2023-04-07T07:53:16;15.93;;;6.28;;
26407;SDS011;14583;43.604;1.364;2023-04-07T07:55:42;18.42;;;6.95;;
26407;SDS011;14583;43.604;1.364;2023-04-07T07:58:09;11.95;;;5.82;;
26407;SDS011;14583;43.604;1.364;2023-04-07T08:00:35;11.32;;;6.00;;
26407;SDS011;14583;43.604;1.364;2023-04-07T08:03:00;11.50;;;5.47;;
26407;SDS011;14583;43.604;1.364;2023-04-07T08:05:26;11.40;;;5.95;;
26407;SDS011;14583;43.604;1.364;2023-04-07T08:07:52;12.95;;;5.18;;
26407;SDS011;14583;43.604;1.364;2023-04-07T08:10:19;10.00;;;5.35;;
26407;SDS011;14583;43.604;1.364;2023-04-07T08:12:45;10.27;;;4.82;;
26407;SDS011;14583;43.604;1.364;2023-04-07T08:15:11;9.10;;;4.65;;
26407;SDS011;14583;43.604;1.364;2023-04-07T08:17:37;7.68;;;3.92;;
26407;SDS011;14583;43.604;1.364;2023-04-07T08:20:03;9.18;;;4.22;;
26407;SDS011;14583;43.604;1.364;2023-04-07T08:22:29;7.07;;;3.70;;
26407;SDS011;14583;43.604;1.364;2023-04-07T08:24:55;12.60;;;5.20;;
26407;SDS011;14583;43.604;1.364;2023-04-07T08:27:20;10.68;;;5.18;;
26407;SDS011;14583;43.604;1.364;2023-04-07T08:29:50;11.70;;;4.05;;
26407;SDS011;14583;43.604;1.364;2023-04-07T08:32:33;8.20;;;4.05;;
26407;SDS011;14583;43.604;1.364;2023-04-07T08:35:03;8.20;;;3.88;;
26407;SDS011;14583;43.604;1.364;2023-04-07T08:37:29;9.40;;;4.20;;
26407;SDS011;14583;43.604;1.364;2023-04-07T08:39:55;8.05;;;4.30;;
26407;SDS011;14583;43.604;1.364;2023-04-07T08:42:22;7.55;;;3.75;;
26407;SDS011;14583;43.604;1.364;2023-04-07T08:44:51;10.40;;;4.18;;
26407;SDS011;14583;43.604;1.364;2023-04-07T08:47:20;6.65;;;3.58;;
26407;SDS011;14583;43.604;1.364;2023-04-07T08:49:51;9.07;;;3.70;;
26407;SDS011;14583;43.604;1.364;2023-04-07T08:52:17;10.98;;;4.03;;
26407;SDS011;14583;43.604;1.364;2023-04-07T08:54:47;7.70;;;3.85;;
26407;SDS011;14583;43.604;1.364;2023-04-07T08:57:14;12.00;;;4.00;;
26407;SDS011;14583;43.604;1.364;2023-04-07T08:59:41;5.55;;;3.90;;
26407;SDS011;14583;43.604;1.364;2023-04-07T09:02:09;10.10;;;4.43;;
26407;SDS011;14583;43.604;1.364;2023-04-07T09:04:35;11.75;;;4.28;;
26407;SDS011;14583;43.604;1.364;2023-04-07T09:07:01;9.77;;;3.05;;
26407;SDS011;14583;43.604;1.364;2023-04-07T09:09:28;7.88;;;3.65;;
26407;SDS011;14583;43.604;1.364;2023-04-07T09:11:53;7.93;;;3.15;;
26407;SDS011;14583;43.604;1.364;2023-04-07T09:14:19;6.30;;;2.97;;
26407;SDS011;14583;43.604;1.364;2023-04-07T09:16:46;5.82;;;2.92;;
26407;SDS011;14583;43.604;1.364;2023-04-07T09:19:11;7.88;;;3.08;;
26407;SDS011;14583;43.604;1.364;2023-04-07T09:24:26;9.00;;;3.70;;
26407;SDS011;14583;43.604;1.364;2023-04-07T09:29:37;4.93;;;3.30;;
26407;SDS011;14583;43.604;1.364;2023-04-07T09:32:04;7.18;;;3.33;;
26407;SDS011;14583;43.604;1.364;2023-04-07T09:34:31;7.03;;;3.67;;
26407;SDS011;14583;43.604;1.364;2023-04-07T09:36:58;5.43;;;3.63;;
26407;SDS011;14583;43.604;1.364;2023-04-07T09:39:25;6.88;;;3.38;;
26407;SDS011;14583;43.604;1.364;2023-04-07T09:41:51;11.57;;;3.33;;
26407;SDS011;14583;43.604;1.364;2023-04-07T09:44:18;8.50;;;3.17;;
26407;SDS011;14583;43.604;1.364;2023-04-07T09:46:48;8.27;;;3.53;;
26407;SDS011;14583;43.604;1.364;2023-04-07T09:49:18;6.78;;;3.15;;
26407;SDS011;14583;43.604;1.364;2023-04-07T09:52:01;8.55;;;3.20;;
26407;SDS011;14583;43.604;1.364;2023-04-07T09:54:38;9.23;;;3.50;;
26407;SDS011;14583;43.604;1.364;2023-04-07T09:57:09;6.75;;;3.55;;
26407;SDS011;14583;43.604;1.364;2023-04-07T09:59:37;4.97;;;3.08;;
26407;SDS011;14583;43.604;1.364;2023-04-07T10:02:06;4.60;;;3.47;;
26407;SDS011;14583;43.604;1.364;2023-04-07T10:04:33;11.02;;;3.13;;
26407;SDS011;14583;43.604;1.364;2023-04-07T10:06:59;9.45;;;3.17;;
26407;SDS011;14583;43.604;1.364;2023-04-07T10:09:28;9.65;;;2.90;;
26407;SDS011;14583;43.604;1.364;2023-04-07T10:11:55;5.63;;;3.08;;
26407;SDS011;14583;43.604;1.364;2023-04-07T10:14:25;8.43;;;3.35;;
26407;SDS011;14583;43.604;1.364;2023-04-07T10:16:58;12.23;;;3.65;;
26407;SDS011;14583;43.604;1.364;2023-04-07T10:19:25;8.00;;;3.47;;
26407;SDS011;14583;43.604;1.364;2023-04-07T10:21:55;7.05;;;2.85;;
26407;SDS011;14583;43.604;1.364;2023-04-07T10:26:50;4.75;;;2.85;;
26407;SDS011;14583;43.604;1.364;2023-04-07T10:29:20;8.90;;;2.60;;
26407;SDS011;14583;43.604;1.364;2023-04-07T10:31:48;8.50;;;2.90;;
26407;SDS011;14583;43.604;1.364;2023-04-07T10:34:15;6.35;;;2.70;;
26407;SDS011;14583;43.604;1.364;2023-04-07T10:37:16;6.43;;;2.70;;
26407;SDS011;14583;43.604;1.364;2023-04-07T10:39:38;7.03;;;2.88;;
26407;SDS011;14583;43.604;1.364;2023-04-07T10:42:04;9.13;;;2.60;;
26407;SDS011;14583;43.604;1.364;2023-04-07T10:44:51;7.50;;;2.92;;
26407;SDS011;14583;43.604;1.364;2023-04-07T10:47:17;6.82;;;2.58;;
26407;SDS011;14583;43.604;1.364;2023-04-07T10:52:36;3.92;;;2.22;;
26407;SDS011;14583;43.604;1.364;2023-04-07T11:03:25;5.40;;;3.10;;
26407;SDS011;14583;43.604;1.364;2023-04-07T11:05:52;9.25;;;3.10;;
26407;SDS011;14583;43.604;1.364;2023-04-07T11:08:33;10.02;;;2.88;;
26407;SDS011;14583;43.604;1.364;2023-04-07T11:11:00;9.18;;;2.80;;
26407;SDS011;14583;43.604;1.364;2023-04-07T11:13:26;3.03;;;2.20;;
26407;SDS011;14583;43.604;1.364;2023-04-07T11:15:52;9.90;;;2.38;;
26407;SDS011;14583;43.604;1.364;2023-04-07T11:18:19;3.38;;;2.15;;
26407;SDS011;14583;43.604;1.364;2023-04-07T11:25:49;3.90;;;2.22;;
26407;SDS011;14583;43.604;1.364;2023-04-07T11:28:16;4.65;;;2.30;;
26407;SDS011;14583;43.604;1.364;2023-04-07T11:30:45;6.15;;;2.20;;
26407;SDS011;14583;43.604;1.364;2023-04-07T11:33:14;5.05;;;2.25;;
26407;SDS011;14583;43.604;1.364;2023-04-07T11:35:58;4.93;;;2.15;;
26407;SDS011;14583;43.604;1.364;2023-04-07T11:40:52;6.97;;;2.33;;
26407;SDS011;14583;43.604;1.364;2023-04-07T11:43:25;4.55;;;2.13;;
26407;SDS011;14583;43.604;1.364;2023-04-07T11:48:40;4.72;;;1.88;;
26407;SDS011;14583;43.604;1.364;2023-04-07T11:51:18;4.85;;;2.15;;
26407;SDS011;14583;43.604;1.364;2023-04-07T11:53:46;4.22;;;2.20;;
26407;SDS011;14583;43.604;1.364;2023-04-07T11:56:18;9.45;;;3.70;;
26407;SDS011;14583;43.604;1.364;2023-04-07T11:58:53;7.60;;;2.10;;
26407;SDS011;14583;43.604;1.364;2023-04-07T12:01:20;4.10;;;2.10;;
26407;SDS011;14583;43.604;1.364;2023-04-07T12:04:01;4.53;;;2.40;;
26407;SDS011;14583;43.604;1.364;2023-04-07T12:09:05;9.35;;;2.55;;
26407;SDS011;14583;43.604;1.364;2023-04-07T12:11:32;4.68;;;2.13;;
26407;SDS011;14583;43.604;1.364;2023-04-07T12:14:00;3.92;;;2.00;;
26407;SDS011;14583;43.604;1.364;2023-04-07T12:16:28;3.85;;;2.15;;
26407;SDS011;14583;43.604;1.364;2023-04-07T12:18:55;5.75;;;2.00;;
26407;SDS011;14583;43.604;1.364;2023-04-07T12:21:21;7.97;;;1.83;;
26407;SDS011;14583;43.604;1.364;2023-04-07T12:23:48;7.20;;;2.10;;
26407;SDS011;14583;43.604;1.364;2023-04-07T12:26:13;4.10;;;1.92;;
26407;SDS011;14583;43.604;1.364;2023-04-07T12:28:39;6.47;;;2.20;;
26407;SDS011;14583;43.604;1.364;2023-04-07T12:31:05;5.70;;;1.92;;
26407;SDS011;14583;43.604;1.364;2023-04-07T12:33:30;4.85;;;2.03;;
26407;SDS011;14583;43.604;1.364;2023-04-07T12:35:56;4.68;;;2.10;;
26407;SDS011;14583;43.604;1.364;2023-04-07T12:38:22;8.05;;;2.13;;
26407;SDS011;14583;43.604;1.364;2023-04-07T12:40:48;8.13;;;2.45;;
26407;SDS011;14583;43.604;1.364;2023-04-07T12:43:14;6.78;;;2.38;;
26407;SDS011;14583;43.604;1.364;2023-04-07T12:45:40;4.38;;;2.13;;
26407;SDS011;14583;43.604;1.364;2023-04-07T12:48:05;7.70;;;2.05;;
26407;SDS011;14583;43.604;1.364;2023-04-07T12:50:31;6.53;;;1.83;;
26407;SDS011;14583;43.604;1.364;2023-04-07T12:52:57;6.28;;;1.95;;
26407;SDS011;14583;43.604;1.364;2023-04-07T12:55:29;6.17;;;2.33;;
26407;SDS011;14583;43.604;1.364;2023-04-07T12:57:57;4.82;;;1.73;;
26407;SDS011;14583;43.604;1.364;2023-04-07T13:00:23;4.80;;;2.10;;
26407;SDS011;14583;43.604;1.364;2023-04-07T13:02:49;5.40;;;2.10;;
26407;SDS011;14583;43.604;1.364;2023-04-07T13:05:15;5.63;;;2.20;;
26407;SDS011;14583;43.604;1.364;2023-04-07T13:07:41;7.13;;;2.00;;
26407;SDS011;14583;43.604;1.364;2023-04-07T13:10:07;4.70;;;2.30;;
26407;SDS011;14583;43.604;1.364;2023-04-07T13:12:33;5.22;;;1.92;;
26407;SDS011;14583;43.604;1.364;2023-04-07T13:14:59;4.03;;;1.63;;
26407;SDS011;14583;43.604;1.364;2023-04-07T13:17:25;3.22;;;1.95;;
26407;SDS011;14583;43.604;1.364;2023-04-07T13:19:52;4.10;;;1.95;;
26407;SDS011;14583;43.604;1.364;2023-04-07T13:22:18;8.30;;;2.08;;
26407;SDS011;14583;43.604;1.364;2023-04-07T13:24:44;2.88;;;1.60;;
26407;SDS011;14583;43.604;1.364;2023-04-07T13:27:10;3.40;;;2.40;;
26407;SDS011;14583;43.604;1.364;2023-04-07T13:29:35;2.97;;;1.58;;
26407;SDS011;14583;43.604;1.364;2023-04-07T13:32:07;3.38;;;1.40;;
26407;SDS011;14583;43.604;1.364;2023-04-07T13:34:36;2.45;;;1.33;;
26407;SDS011;14583;43.604;1.364;2023-04-07T13:37:03;6.82;;;1.80;;
26407;SDS011;14583;43.604;1.364;2023-04-07T13:39:29;5.45;;;1.63;;
26407;SDS011;14583;43.604;1.364;2023-04-07T13:41:56;2.55;;;1.60;;
26407;SDS011;14583;43.604;1.364;2023-04-07T13:44:22;6.05;;;1.65;;
26407;SDS011;14583;43.604;1.364;2023-04-07T13:46:48;2.38;;;1.45;;
26407;SDS011;14583;43.604;1.364;2023-04-07T13:49:14;3.20;;;1.23;;
26407;SDS011;14583;43.604;1.364;2023-04-07T13:51:40;2.13;;;1.20;;
26407;SDS011;14583;43.604;1.364;2023-04-07T13:54:06;2.75;;;1.20;;
26407;SDS011;14583;43.604;1.364;2023-04-07T13:56:31;2.97;;;1.20;;
26407;SDS011;14583;43.604;1.364;2023-04-07T13:58:59;3.50;;;1.20;;
26407;SDS011;14583;43.604;1.364;2023-04-07T14:01:25;1.80;;;1.20;;
26407;SDS011;14583;43.604;1.364;2023-04-07T14:03:51;4.50;;;1.30;;
26407;SDS011;14583;43.604;1.364;2023-04-07T14:06:17;3.15;;;1.50;;
26407;SDS011;14583;43.604;1.364;2023-04-07T14:08:46;2.22;;;1.30;;
26407;SDS011;14583;43.604;1.364;2023-04-07T14:11:15;2.70;;;1.35;;
26407;SDS011;14583;43.604;1.364;2023-04-07T14:13:42;7.45;;;1.40;;
26407;SDS011;14583;43.604;1.364;2023-04-07T14:16:07;2.67;;;1.40;;
26407;SDS011;14583;43.604;1.364;2023-04-07T14:18:33;2.25;;;1.20;;
26407;SDS011;14583;43.604;1.364;2023-04-07T14:20:59;3.03;;;1.60;;
26407;SDS011;14583;43.604;1.364;2023-04-07T14:23:25;2.97;;;1.20;;
26407;SDS011;14583;43.604;1.364;2023-04-07T14:25:51;4.20;;;1.15;;
26407;SDS011;14583;43.604;1.364;2023-04-07T14:28:17;3.35;;;1.20;;
26407;SDS011;14583;43.604;1.364;2023-04-07T14:30:42;7.30;;;1.55;;
26407;SDS011;14583;43.604;1.364;2023-04-07T14:33:08;5.85;;;1.15;;
26407;SDS011;14583;43.604;1.364;2023-04-07T14:35:37;4.68;;;1.30;;
26407;SDS011;14583;43.604;1.364;2023-04-07T14:38:03;3.92;;;1.20;;
26407;SDS011;14583;43.604;1.364;2023-04-07T14:40:29;2.25;;;1.35;;
26407;SDS011;14583;43.604;1.364;2023-04-07T14:42:55;3.53;;;1.17;;
26407;SDS011;14583;43.604;1.364;2023-04-07T14:45:22;3.15;;;2.05;;
26407;SDS011;14583;43.604;1.364;2023-04-07T14:47:48;5.13;;;1.17;;
26407;SDS011;14583;43.604;1.364;2023-04-07T14:50:14;4.82;;;1.70;;
26407;SDS011;14583;43.604;1.364;2023-04-07T14:52:40;4.97;;;1.50;;
26407;SDS011;14583;43.604;1.364;2023-04-07T14:55:06;2.25;;;1.08;;
26407;SDS011;14583;43.604;1.364;2023-04-07T14:57:32;6.38;;;1.13;;
26407;SDS011;14583;43.604;1.364;2023-04-07T14:59:57;3.85;;;1.30;;
26407;SDS011;14583;43.604;1.364;2023-04-07T15:02:23;3.78;;;1.38;;
26407;SDS011;14583;43.604;1.364;2023-04-07T15:04:48;1.55;;;1.02;;
26407;SDS011;14583;43.604;1.364;2023-04-07T15:07:14;4.82;;;1.17;;
26407;SDS011;14583;43.604;1.364;2023-04-07T15:09:40;2.47;;;1.05;;
26407;SDS011;14583;43.604;1.364;2023-04-07T15:12:05;2.65;;;1.17;;
26407;SDS011;14583;43.604;1.364;2023-04-07T15:14:31;4.32;;;1.40;;
26407;SDS011;14583;43.604;1.364;2023-04-07T15:16:57;2.10;;;0.80;;
26407;SDS011;14583;43.604;1.364;2023-04-07T15:19:22;1.65;;;1.05;;
26407;SDS011;14583;43.604;1.364;2023-04-07T15:21:48;7.22;;;1.17;;
26407;SDS011;14583;43.604;1.364;2023-04-07T15:24:14;1.85;;;1.20;;
26407;SDS011;14583;43.604;1.364;2023-04-07T15:26:39;5.78;;;1.20;;
26407;SDS011;14583;43.604;1.364;2023-04-07T15:29:05;2.72;;;1.40;;
26407;SDS011;14583;43.604;1.364;2023-04-07T15:31:31;2.38;;;1.10;;
26407;SDS011;14583;43.604;1.364;2023-04-07T15:33:56;1.27;;;1.00;;
26407;SDS011;14583;43.604;1.364;2023-04-07T15:36:22;1.33;;;0.90;;